createdAt,value
2022-08-26T00:01:41.150Z,27.7
2022-08-26T00:07:02.796Z,27.7
2022-08-26T00:12:37.365Z,27.7
2022-08-26T00:17:55.639Z,27.7
2022-08-26T00:23:13.857Z,27.8
2022-08-26T00:28:32.616Z,27.8
2022-08-26T00:33:51.811Z,27.8
2022-08-26T00:39:10.290Z,27.8
2022-08-26T00:44:29.047Z,27.8
2022-08-26T00:49:48.656Z,27.9
2022-08-26T00:55:07.396Z,27.8
2022-08-26T01:00:25.598Z,27.8
2022-08-26T01:05:44.365Z,27.8
2022-08-26T01:11:04.489Z,27.8
2022-08-26T01:16:23.323Z,27.8
2022-08-26T01:21:42.205Z,27.8
2022-08-26T01:27:00.405Z,27.7
2022-08-26T01:32:18.620Z,27.7
2022-08-26T01:37:37.311Z,27.7
2022-08-26T01:42:58.642Z,27.7
2022-08-26T01:48:17.129Z,27.6
2022-08-26T01:53:35.050Z,27.6
2022-08-26T01:58:54.066Z,27.6
2022-08-26T02:04:12.582Z,27.6
2022-08-26T02:09:31.010Z,27.6
2022-08-26T02:14:49.874Z,27.7
2022-08-26T02:20:15.405Z,27.7
2022-08-26T02:25:34.172Z,27.7
2022-08-26T02:30:54.857Z,27.7
2022-08-26T02:36:15.985Z,27.8
2022-08-26T02:41:34.302Z,27.8
2022-08-26T02:47:01.871Z,27.7
2022-08-26T02:52:21.359Z,27.6
2022-08-26T02:57:40.119Z,27.7
2022-08-26T03:02:58.041Z,27.6
2022-08-26T03:08:16.814Z,27.6
2022-08-26T03:13:35.620Z,27.5
2022-08-26T03:18:54.311Z,27.5
2022-08-26T03:24:12.534Z,27.5
2022-08-26T03:29:33.291Z,27.4
2022-08-26T03:34:51.763Z,27.4
2022-08-26T03:40:10.093Z,27.4
2022-08-26T03:45:28.684Z,27.4
2022-08-26T03:50:48.994Z,27.3
2022-08-26T03:56:10.643Z,27.3
2022-08-26T04:01:29.424Z,27.3
2022-08-26T04:06:50.410Z,27.2
2022-08-26T04:11:53.281Z,27.2
2022-08-26T04:17:12.039Z,27.2
2022-08-26T04:22:30.796Z,27.2
2022-08-26T04:27:50.784Z,27.2
2022-08-26T04:33:13.915Z,27.2
2022-08-26T04:38:32.566Z,27.2
2022-08-26T04:43:51.682Z,27.1
2022-08-26T04:49:11.575Z,27.1
2022-08-26T04:54:16.559Z,27.1
2022-08-26T04:59:39.914Z,27.1
2022-08-26T05:04:58.146Z,27.1
2022-08-26T05:10:18.725Z,27
2022-08-26T05:15:37.926Z,27
2022-08-26T05:20:55.898Z,27.1
2022-08-26T05:26:16.701Z,27.1
2022-08-26T05:31:40.583Z,27.1
2022-08-26T05:36:58.767Z,27.1
2022-08-26T05:42:17.610Z,27
2022-08-26T05:47:36.103Z,27
2022-08-26T05:52:54.179Z,27
2022-08-26T05:58:13.862Z,27.1
2022-08-26T06:03:35.414Z,27.1
2022-08-26T06:08:53.974Z,27.1
2022-08-26T06:14:12.397Z,27.2
2022-08-26T06:19:34.631Z,27.2
2022-08-26T06:24:52.792Z,27.2
2022-08-26T06:30:10.993Z,27.2
2022-08-26T06:35:31.381Z,27.3
2022-08-26T06:40:50.438Z,27.3
2022-08-26T06:46:09.622Z,27.3
2022-08-26T06:51:30.375Z,27.3
2022-08-26T06:56:49.807Z,27.3
2022-08-26T07:02:14.021Z,27.3
2022-08-26T07:07:36.868Z,27.3
2022-08-26T07:12:55.991Z,27.4
2022-08-26T07:18:15.621Z,27.4
2022-08-26T07:23:34.374Z,27.4
2022-08-26T07:28:53.876Z,27.4
2022-08-26T07:34:12.361Z,27.4
2022-08-26T07:39:32.033Z,27.5
2022-08-26T07:44:52.650Z,27.5
2022-08-26T07:50:11.523Z,27.5
2022-08-26T07:55:29.723Z,27.5
2022-08-26T08:00:50.564Z,27.5
2022-08-26T08:06:11.312Z,27.6
2022-08-26T08:11:30.787Z,27.6
2022-08-26T08:16:54.553Z,27.6
2022-08-26T08:22:19.989Z,27.6
2022-08-26T08:27:40.032Z,27.6
2022-08-26T08:32:58.792Z,27.7
2022-08-26T08:38:17.944Z,27.7
2022-08-26T08:43:38.270Z,27.7
2022-08-26T08:48:56.950Z,27.7
2022-08-26T08:54:15.782Z,27.7
2022-08-26T08:59:34.532Z,27.8
2022-08-26T09:04:57.702Z,27.8
2022-08-26T09:10:18.188Z,27.8
2022-08-26T09:15:38.323Z,27.8
2022-08-26T09:20:57.402Z,27.8
2022-08-26T09:26:16.151Z,27.8
2022-08-26T09:31:35.659Z,27.9
2022-08-26T09:36:54.617Z,27.9
2022-08-26T09:42:14.535Z,27.9
2022-08-26T09:47:35.389Z,27.9
2022-08-26T09:52:54.208Z,27.9
2022-08-26T09:58:13.135Z,27.9
2022-08-26T10:03:32.211Z,27.9
2022-08-26T10:08:51.167Z,27.9
2022-08-26T10:14:12.229Z,27.9
2022-08-26T10:19:57.762Z,28
2022-08-26T10:25:16.371Z,28
2022-08-26T10:30:34.839Z,28
2022-08-26T10:35:53.325Z,28
2022-08-26T10:41:13.198Z,28.1
2022-08-26T10:46:37.404Z,28.1
2022-08-26T10:51:59.336Z,28.1
2022-08-26T10:57:19.199Z,28.1
2022-08-26T11:02:37.926Z,28.2
2022-08-26T11:07:57.307Z,28.2
2022-08-26T11:13:17.017Z,28.2
2022-08-26T11:18:37.089Z,28.2
2022-08-26T11:23:56.912Z,28.2
2022-08-26T11:29:15.734Z,28.2
2022-08-26T11:34:34.967Z,28.2
2022-08-26T11:39:57.502Z,28.2
2022-08-26T11:45:15.968Z,28.2
2022-08-26T11:50:35.079Z,28.2
2022-08-26T11:55:53.716Z,28.3
2022-08-26T12:01:12.219Z,28.2
2022-08-26T12:06:30.425Z,28.2
2022-08-26T12:11:49.960Z,28.2
2022-08-26T12:17:10.058Z,28.3
2022-08-26T12:22:28.783Z,28.3
2022-08-26T12:27:54.202Z,28.2
2022-08-26T12:33:23.384Z,28.2
2022-08-26T12:38:41.844Z,28.2
2022-08-26T12:44:00.056Z,28.2
2022-08-26T12:49:18.530Z,28.2
2022-08-26T12:54:37.020Z,28.2
2022-08-26T12:59:55.216Z,28.2
2022-08-26T13:05:14.161Z,28.2
2022-08-26T13:10:20.055Z,28.2
2022-08-26T13:15:38.417Z,28.2
2022-08-26T13:20:56.591Z,28.2
2022-08-26T13:26:15.093Z,28.2
2022-08-26T13:31:33.784Z,28.2
2022-08-26T13:36:53.228Z,28.2
2022-08-26T13:42:11.408Z,28.2
2022-08-26T13:47:14.268Z,28.2
2022-08-26T13:52:32.478Z,28.3
2022-08-26T13:57:50.679Z,28.3
2022-08-26T14:03:13.676Z,28.3
2022-08-26T14:08:31.915Z,28.3
2022-08-26T14:13:50.118Z,28.3
2022-08-26T14:19:08.599Z,28.2
2022-08-26T14:24:27.079Z,28.3
2022-08-26T14:29:45.562Z,28.3
2022-08-26T14:35:04.319Z,28.3
2022-08-26T14:40:22.641Z,28.3
2022-08-26T14:45:43.923Z,28.2
2022-08-26T14:51:02.823Z,28.3
2022-08-26T14:56:21.299Z,28.2
2022-08-26T15:01:39.616Z,28.2
2022-08-26T15:06:58.166Z,28.2
2022-08-26T15:12:16.370Z,28.2
2022-08-26T15:17:35.134Z,28.3
2022-08-26T15:22:53.901Z,28.3
2022-08-26T15:28:13.366Z,28.3
2022-08-26T15:33:16.224Z,28.3
2022-08-26T15:38:34.692Z,28.2
2022-08-26T15:43:52.909Z,28.2
2022-08-26T15:49:18.820Z,28.2
2022-08-26T15:54:37.302Z,28.2
2022-08-26T15:59:55.782Z,28.2
2022-08-26T16:05:14.277Z,28.2
2022-08-26T16:10:32.479Z,28.2
2022-08-26T16:15:50.795Z,28.2
2022-08-26T16:21:14.255Z,28.2
2022-08-26T16:26:32.701Z,28.2
2022-08-26T16:31:51.179Z,28.2
2022-08-26T16:37:09.948Z,28.2
2022-08-26T16:42:28.403Z,28.2
2022-08-26T16:47:47.122Z,28.2
2022-08-26T16:53:05.477Z,28.2
2022-08-26T16:58:23.638Z,28.2
2022-08-26T17:03:42.086Z,28.2
2022-08-26T17:09:00.828Z,28.2
2022-08-26T17:14:19.559Z,28.2
2022-08-26T17:19:41.747Z,28.2
2022-08-26T17:25:05.673Z,28.2
2022-08-26T17:30:24.123Z,28.2
2022-08-26T17:35:42.325Z,28.2
2022-08-26T17:41:00.800Z,28.2
2022-08-26T17:46:19.080Z,28.3
2022-08-26T17:51:43.155Z,28.2
2022-08-26T17:57:01.897Z,28.2
2022-08-26T18:02:20.493Z,28.2
2022-08-26T18:07:23.056Z,28.2
2022-08-26T18:12:41.729Z,28.1
2022-08-26T18:18:00.280Z,28.1
2022-08-26T18:23:18.484Z,28.1
2022-08-26T18:28:36.682Z,28.1
2022-08-26T18:33:54.839Z,28.1
2022-08-26T18:39:13.012Z,28.1
2022-08-26T18:44:31.606Z,28.1
2022-08-26T18:49:50.014Z,28.1
2022-08-26T18:55:08.761Z,28.2
2022-08-26T19:00:27.246Z,28.2
2022-08-26T19:05:45.405Z,28.1
2022-08-26T19:11:04.267Z,28.1
2022-08-26T19:16:25.203Z,28.1
2022-08-26T19:21:43.379Z,28.1
2022-08-26T19:27:01.629Z,28.1
2022-08-26T19:32:20.370Z,28.1
2022-08-26T19:37:39.286Z,28.1
2022-08-26T19:42:58.015Z,28.1
2022-08-26T19:48:16.504Z,28.1
2022-08-26T19:53:35.409Z,28.1
2022-08-26T19:58:53.872Z,28.1
2022-08-26T20:04:12.364Z,28.1
2022-08-26T20:09:31.123Z,28.1
2022-08-26T20:14:49.614Z,28.1
2022-08-26T20:20:33.096Z,28.1
2022-08-26T20:25:52.298Z,28.1
2022-08-26T20:31:12.647Z,28.1
2022-08-26T20:36:31.645Z,28.1
2022-08-26T20:41:50.416Z,28.1
2022-08-26T20:47:08.626Z,28.1
2022-08-26T20:52:27.105Z,28.1
2022-08-26T20:57:45.579Z,28.1
2022-08-26T21:03:04.051Z,28.1
2022-08-26T21:08:22.576Z,28.1
2022-08-26T21:14:07.237Z,28.1
2022-08-26T21:19:35.734Z,28.1
2022-08-26T21:24:54.637Z,28.1
2022-08-26T21:30:13.563Z,28.1
2022-08-26T21:35:31.477Z,28.1
2022-08-26T21:40:49.426Z,28
2022-08-26T21:45:52.213Z,28.1
2022-08-26T21:51:10.451Z,28.1
2022-08-26T21:56:28.937Z,28.1
2022-08-26T22:01:47.599Z,28.1
2022-08-26T22:07:05.969Z,28.1
2022-08-26T22:12:24.462Z,28.1
2022-08-26T22:17:43.216Z,28.1
2022-08-26T22:23:01.419Z,28.1
2022-08-26T22:28:19.904Z,28.1
